createdAt,value
2022-12-31T00:01:37.509Z,2.08
2022-12-31T00:04:04.754Z,1.48
2022-12-31T00:06:33.632Z,1.85
2022-12-31T00:09:06.125Z,1.55
2022-12-31T00:11:33.978Z,1.33
2022-12-31T00:14:01.833Z,2.00
2022-12-31T00:16:32.995Z,1.55
2022-12-31T00:21:29.405Z,1.40
2022-12-31T00:23:57.088Z,1.10
2022-12-31T00:26:25.523Z,1.20
2022-12-31T00:28:53.724Z,0.90
2022-12-31T00:31:24.416Z,1.55
2022-12-31T00:33:51.993Z,1.42
2022-12-31T00:36:30.038Z,1.40
2022-12-31T00:38:58.773Z,1.38
2022-12-31T00:41:26.457Z,1.02
2022-12-31T00:43:56.837Z,1.40
2022-12-31T00:46:25.057Z,1.00
2022-12-31T00:48:52.466Z,1.10
2022-12-31T00:51:21.816Z,1.20
2022-12-31T00:53:49.634Z,0.95
2022-12-31T00:56:18.008Z,1.45
2022-12-31T00:58:48.174Z,1.10
2022-12-31T01:01:15.366Z,1.00
2022-12-31T01:03:44.292Z,1.13
2022-12-31T01:06:11.590Z,1.15
2022-12-31T01:08:40.433Z,0.82
2022-12-31T01:11:19.960Z,1.00
2022-12-31T01:13:48.949Z,1.33
2022-12-31T01:16:16.930Z,1.02
2022-12-31T01:18:44.290Z,0.95
2022-12-31T01:21:15.382Z,1.05
2022-12-31T01:23:43.206Z,1.05
2022-12-31T01:26:11.491Z,1.00
2022-12-31T01:28:38.732Z,1.00
2022-12-31T01:31:07.397Z,1.08
2022-12-31T01:33:35.237Z,0.98
2022-12-31T01:36:06.572Z,0.50
2022-12-31T01:38:35.835Z,1.05
2022-12-31T01:41:03.230Z,1.20
2022-12-31T01:43:49.035Z,0.93
2022-12-31T01:46:22.489Z,1.25
2022-12-31T01:48:54.306Z,0.90
2022-12-31T01:51:22.403Z,0.50
2022-12-31T01:53:50.779Z,0.90
2022-12-31T01:56:19.092Z,0.55
2022-12-31T01:58:49.090Z,1.33
2022-12-31T02:01:21.691Z,0.80
2022-12-31T02:03:48.976Z,0.80
2022-12-31T02:06:21.451Z,1.23
2022-12-31T02:08:50.239Z,1.20
2022-12-31T02:11:31.259Z,1.20
2022-12-31T02:14:00.885Z,1.10
2022-12-31T02:16:50.597Z,1.10
2022-12-31T02:19:48.953Z,1.23
2022-12-31T02:22:16.423Z,0.90
2022-12-31T02:24:56.780Z,1.27
2022-12-31T02:27:23.966Z,1.30
2022-12-31T02:30:22.319Z,1.10
2022-12-31T02:32:49.643Z,0.80
2022-12-31T02:35:25.721Z,1.25
2022-12-31T02:37:59.478Z,1.13
2022-12-31T02:40:26.899Z,1.52
2022-12-31T02:42:55.681Z,0.90
2022-12-31T02:45:28.238Z,0.93
2022-12-31T02:48:04.273Z,1.67
2022-12-31T02:50:31.564Z,0.77
2022-12-31T02:52:59.115Z,0.90
2022-12-31T02:55:32.817Z,1.38
2022-12-31T02:58:12.339Z,1.05
2022-12-31T03:01:28.073Z,1.08
2022-12-31T03:04:15.287Z,0.77
2022-12-31T03:06:42.925Z,1.02
2022-12-31T03:09:17.534Z,1.15
2022-12-31T03:12:03.295Z,1.58
2022-12-31T03:14:32.706Z,1.85
2022-12-31T03:17:01.913Z,1.65
2022-12-31T03:19:48.200Z,2.05
2022-12-31T03:22:27.732Z,1.45
2022-12-31T03:25:21.118Z,1.50
2022-12-31T03:27:48.484Z,3.80
2022-12-31T03:30:17.001Z,1.25
2022-12-31T03:32:45.071Z,1.52
2022-12-31T03:35:12.916Z,1.30
2022-12-31T03:37:40.774Z,1.40
2022-12-31T03:40:09.045Z,1.30
2022-12-31T03:42:36.287Z,1.60
2022-12-31T03:45:03.665Z,1.40
2022-12-31T03:47:30.976Z,2.10
2022-12-31T03:49:58.281Z,2.40
2022-12-31T03:52:31.260Z,2.05
2022-12-31T03:54:58.585Z,2.70
2022-12-31T03:57:25.977Z,2.78
2022-12-31T03:59:53.305Z,2.95
2022-12-31T04:02:26.335Z,3.67
2022-12-31T04:04:56.193Z,4.13
2022-12-31T04:07:24.774Z,6.35
2022-12-31T04:09:54.600Z,8.13
2022-12-31T04:12:21.695Z,7.07
2022-12-31T04:14:48.882Z,7.80
2022-12-31T04:17:16.299Z,7.53
2022-12-31T04:19:43.544Z,7.28
2022-12-31T04:22:11.041Z,6.65
2022-12-31T04:24:39.263Z,4.25
2022-12-31T04:27:07.992Z,3.58
2022-12-31T04:29:35.719Z,3.05
2022-12-31T04:32:03.814Z,2.08
2022-12-31T04:34:32.072Z,1.80
2022-12-31T04:36:59.474Z,1.83
2022-12-31T04:39:26.678Z,1.15
2022-12-31T04:41:54.382Z,1.63
2022-12-31T04:44:21.693Z,1.13
2022-12-31T04:46:49.100Z,1.95
2022-12-31T04:49:16.267Z,1.88
2022-12-31T04:51:43.551Z,1.58
2022-12-31T04:54:10.911Z,2.30
2022-12-31T04:56:39.257Z,1.83
2022-12-31T04:59:07.421Z,2.60
2022-12-31T05:01:36.729Z,2.25
2022-12-31T05:04:04.118Z,1.73
2022-12-31T05:06:31.277Z,3.03
2022-12-31T05:08:58.454Z,2.85
2022-12-31T05:11:25.557Z,3.50
2022-12-31T05:13:52.880Z,3.17
2022-12-31T05:16:20.098Z,3.88
2022-12-31T05:18:47.624Z,4.03
2022-12-31T05:21:20.422Z,4.05
2022-12-31T05:23:47.785Z,4.43
2022-12-31T05:26:15.402Z,2.55
2022-12-31T05:28:42.610Z,4.97
2022-12-31T05:31:09.825Z,2.88
2022-12-31T05:33:37.718Z,4.85
2022-12-31T05:36:05.025Z,4.75
2022-12-31T05:38:32.293Z,5.60
2022-12-31T05:41:00.257Z,4.50
2022-12-31T05:43:27.787Z,5.07
2022-12-31T05:45:55.160Z,5.90
2022-12-31T05:48:22.340Z,6.65
2022-12-31T05:50:50.328Z,7.18
2022-12-31T05:53:17.669Z,9.77
2022-12-31T05:55:46.240Z,7.82
2022-12-31T05:58:13.476Z,6.38
2022-12-31T06:00:43.149Z,4.28
2022-12-31T06:03:10.402Z,5.25
2022-12-31T06:05:40.506Z,2.10
2022-12-31T06:08:07.648Z,3.30
2022-12-31T06:10:35.116Z,3.97
2022-12-31T06:13:02.534Z,3.10
2022-12-31T06:15:29.858Z,2.72
2022-12-31T06:18:00.201Z,3.22
2022-12-31T06:20:27.449Z,2.43
2022-12-31T06:22:54.635Z,3.17
2022-12-31T06:25:21.965Z,1.75
2022-12-31T06:27:49.448Z,1.55
2022-12-31T06:30:16.680Z,1.08
2022-12-31T06:32:44.707Z,1.15
2022-12-31T06:35:11.957Z,0.82
2022-12-31T06:37:39.530Z,1.00
2022-12-31T06:40:07.274Z,1.10
2022-12-31T06:42:34.412Z,0.80
2022-12-31T06:45:02.684Z,0.55
2022-12-31T06:47:29.819Z,0.80
2022-12-31T06:49:57.145Z,0.52
2022-12-31T06:52:24.433Z,0.70
2022-12-31T06:54:51.900Z,0.80
2022-12-31T06:57:19.240Z,1.25
2022-12-31T06:59:46.742Z,1.13
2022-12-31T07:02:19.796Z,1.48
2022-12-31T07:04:49.803Z,2.38
2022-12-31T07:07:41.019Z,2.53
2022-12-31T07:10:15.130Z,2.22
2022-12-31T07:12:42.261Z,2.83
2022-12-31T07:15:14.798Z,3.78
2022-12-31T07:18:11.707Z,3.38
2022-12-31T07:20:38.910Z,3.50
2022-12-31T07:23:08.363Z,2.00
2022-12-31T07:25:37.561Z,0.52
2022-12-31T07:28:04.713Z,0.70
2022-12-31T07:30:35.841Z,0.90
2022-12-31T07:33:09.086Z,0.63
2022-12-31T07:35:55.330Z,0.70
2022-12-31T07:38:32.756Z,0.85
2022-12-31T07:41:02.704Z,0.82
2022-12-31T07:43:35.660Z,0.70
2022-12-31T07:46:22.406Z,0.77
2022-12-31T07:48:49.823Z,0.60
2022-12-31T07:51:17.236Z,0.40
2022-12-31T07:53:46.669Z,0.73
2022-12-31T07:56:14.177Z,0.65
2022-12-31T07:58:42.731Z,0.80
2022-12-31T08:01:17.143Z,0.65
2022-12-31T08:04:05.745Z,0.75
2022-12-31T08:06:48.713Z,0.63
2022-12-31T08:09:35.731Z,0.82
2022-12-31T08:12:04.014Z,0.60
2022-12-31T08:14:37.631Z,0.43
2022-12-31T08:17:05.255Z,0.70
2022-12-31T08:19:33.225Z,0.98
2022-12-31T08:22:19.537Z,1.02
2022-12-31T08:24:59.685Z,1.15
2022-12-31T08:27:26.955Z,0.80
2022-12-31T08:29:56.922Z,0.90
2022-12-31T08:32:32.621Z,0.88
2022-12-31T08:34:59.712Z,1.20
2022-12-31T08:37:37.341Z,1.50
2022-12-31T08:40:04.455Z,1.20
2022-12-31T08:42:46.123Z,1.00
2022-12-31T08:45:13.366Z,1.25
2022-12-31T08:47:46.831Z,0.90
2022-12-31T08:50:15.470Z,1.88
2022-12-31T08:52:42.978Z,1.58
2022-12-31T08:55:13.988Z,1.13
2022-12-31T08:58:02.129Z,0.80
2022-12-31T09:00:30.833Z,1.20
2022-12-31T09:03:13.126Z,1.40
2022-12-31T09:05:40.338Z,1.70
2022-12-31T09:08:07.771Z,0.80
2022-12-31T09:10:39.801Z,1.20
2022-12-31T09:13:09.840Z,0.90
2022-12-31T09:15:54.100Z,1.00
2022-12-31T09:18:21.605Z,1.08
2022-12-31T09:20:48.970Z,1.20
2022-12-31T09:23:23.289Z,0.80
2022-12-31T09:26:00.585Z,0.85
2022-12-31T09:28:29.898Z,1.17
2022-12-31T09:31:01.276Z,1.00
2022-12-31T09:33:40.870Z,1.08
2022-12-31T09:36:08.955Z,1.40
2022-12-31T09:38:42.268Z,1.00
2022-12-31T09:41:17.202Z,1.40
2022-12-31T09:43:46.620Z,1.20
2022-12-31T09:46:20.690Z,1.38
2022-12-31T09:48:51.235Z,1.27
2022-12-31T09:51:25.224Z,1.40
2022-12-31T09:53:59.131Z,1.42
2022-12-31T09:56:38.461Z,1.20
2022-12-31T09:59:18.573Z,1.13
2022-12-31T10:01:46.852Z,1.20
2022-12-31T10:04:35.903Z,1.00
2022-12-31T10:07:21.440Z,0.88
2022-12-31T10:10:01.536Z,1.33
2022-12-31T10:12:47.424Z,1.25
2022-12-31T10:15:20.458Z,0.90
2022-12-31T10:17:54.518Z,1.23
2022-12-31T10:20:33.744Z,1.10
2022-12-31T10:23:18.270Z,1.00
2022-12-31T10:25:53.940Z,1.08
2022-12-31T10:28:36.365Z,1.02
2022-12-31T10:31:14.738Z,1.02
2022-12-31T10:33:42.181Z,0.80
2022-12-31T10:36:16.335Z,1.13
2022-12-31T10:39:07.450Z,0.93
2022-12-31T10:41:39.154Z,1.33
2022-12-31T10:44:26.428Z,1.38
2022-12-31T10:47:12.148Z,1.48
2022-12-31T10:49:51.636Z,1.17
2022-12-31T10:52:41.972Z,0.82
2022-12-31T10:55:30.395Z,1.60
2022-12-31T10:58:07.040Z,1.38
2022-12-31T11:00:57.580Z,0.98
2022-12-31T11:03:43.397Z,1.23
2022-12-31T11:06:35.313Z,0.93
2022-12-31T11:09:09.710Z,1.30
2022-12-31T11:11:38.896Z,1.70
2022-12-31T11:14:23.086Z,1.02
2022-12-31T11:17:03.331Z,1.30
2022-12-31T11:19:50.186Z,1.10
2022-12-31T11:22:20.789Z,1.15
2022-12-31T11:24:49.046Z,1.60
2022-12-31T11:27:31.993Z,1.63
2022-12-31T11:29:59.202Z,1.67
2022-12-31T11:32:30.211Z,1.35
2022-12-31T11:35:07.455Z,1.45
2022-12-31T11:37:34.804Z,1.65
2022-12-31T11:40:15.849Z,2.20
2022-12-31T11:42:51.811Z,1.40
2022-12-31T11:45:37.642Z,1.25
2022-12-31T11:51:03.388Z,1.55
2022-12-31T11:53:43.872Z,1.42
2022-12-31T11:56:10.992Z,1.55
2022-12-31T11:58:43.034Z,1.83
2022-12-31T12:01:12.796Z,1.90
2022-12-31T12:03:43.632Z,1.42
2022-12-31T12:06:15.007Z,1.02
2022-12-31T12:08:43.756Z,1.48
2022-12-31T12:11:22.402Z,1.80
2022-12-31T12:13:50.640Z,1.35
2022-12-31T12:16:20.314Z,1.00
2022-12-31T12:18:51.967Z,1.70
2022-12-31T12:21:23.163Z,1.80
2022-12-31T12:26:30.648Z,1.27
2022-12-31T12:29:00.115Z,1.45
2022-12-31T12:31:27.493Z,1.20
2022-12-31T12:33:55.001Z,1.40
2022-12-31T12:36:22.616Z,1.00
2022-12-31T12:39:00.672Z,1.40
2022-12-31T12:41:28.007Z,1.35
2022-12-31T12:44:06.064Z,1.00
2022-12-31T12:46:54.256Z,1.70
2022-12-31T12:49:23.803Z,0.98
2022-12-31T12:52:06.481Z,1.10
2022-12-31T12:54:52.657Z,1.40
2022-12-31T12:57:30.443Z,1.20
2022-12-31T13:00:17.835Z,1.10
2022-12-31T13:02:57.737Z,1.98
2022-12-31T13:05:43.903Z,1.60
2022-12-31T13:08:12.025Z,1.42
2022-12-31T13:10:58.400Z,1.65
2022-12-31T13:13:31.292Z,1.10
2022-12-31T13:16:06.884Z,1.70
2022-12-31T13:18:34.050Z,1.00
2022-12-31T13:21:01.213Z,1.20
2022-12-31T13:23:39.941Z,1.90
2022-12-31T13:26:07.270Z,1.23
2022-12-31T13:28:35.077Z,0.90
2022-12-31T13:31:08.635Z,1.42
2022-12-31T13:33:42.139Z,1.60
2022-12-31T13:36:10.947Z,1.52
2022-12-31T13:38:46.627Z,1.10
2022-12-31T13:41:13.706Z,1.50
2022-12-31T13:43:50.989Z,1.60
2022-12-31T13:46:27.317Z,1.40
2022-12-31T13:48:54.627Z,1.17
2022-12-31T13:51:25.011Z,1.13
2022-12-31T13:53:55.631Z,1.48
2022-12-31T13:56:32.243Z,0.80
2022-12-31T13:59:07.037Z,1.10
2022-12-31T14:01:37.596Z,1.38
2022-12-31T14:04:16.581Z,1.58
2022-12-31T14:06:45.775Z,0.98
2022-12-31T14:09:21.137Z,1.67
2022-12-31T14:11:49.407Z,1.20
2022-12-31T14:14:35.237Z,1.38
2022-12-31T14:17:18.230Z,1.80
2022-12-31T14:19:57.939Z,1.20
2022-12-31T14:22:38.374Z,1.25
2022-12-31T14:25:15.774Z,1.50
2022-12-31T14:27:44.081Z,1.40
2022-12-31T14:30:21.990Z,2.10
2022-12-31T14:32:57.325Z,2.13
2022-12-31T14:35:44.697Z,1.88
2022-12-31T14:38:17.873Z,2.45
2022-12-31T14:40:45.161Z,2.45
2022-12-31T14:43:32.809Z,3.33
2022-12-31T14:46:19.160Z,2.35
2022-12-31T14:49:03.776Z,2.45
2022-12-31T14:51:32.155Z,2.50
2022-12-31T14:54:02.105Z,1.90
2022-12-31T14:56:45.501Z,2.13
2022-12-31T14:59:29.154Z,2.08
2022-12-31T15:01:58.859Z,2.40
2022-12-31T15:04:53.621Z,2.45
2022-12-31T15:07:31.870Z,2.22
2022-12-31T15:10:05.356Z,2.28
2022-12-31T15:12:53.741Z,2.20
2022-12-31T15:15:43.066Z,1.88
2022-12-31T15:18:28.140Z,2.22
2022-12-31T15:21:08.882Z,2.40
2022-12-31T15:23:42.341Z,2.03
2022-12-31T15:26:20.888Z,2.10
2022-12-31T15:28:56.992Z,1.52
2022-12-31T15:31:25.586Z,2.50
2022-12-31T15:34:24.859Z,2.33
2022-12-31T15:36:54.712Z,2.00
2022-12-31T15:39:26.891Z,2.15
2022-12-31T15:45:06.764Z,1.90
2022-12-31T15:48:03.475Z,2.22
2022-12-31T15:50:31.157Z,2.35
2022-12-31T15:53:00.795Z,2.45
2022-12-31T15:55:31.496Z,1.65
2022-12-31T15:58:05.072Z,1.88
2022-12-31T16:00:47.899Z,2.50
2022-12-31T16:03:27.006Z,2.35
2022-12-31T16:06:01.251Z,1.85
2022-12-31T16:08:30.749Z,2.00
2022-12-31T16:11:00.640Z,2.10
2022-12-31T16:13:29.298Z,2.22
2022-12-31T16:16:20.971Z,2.50
2022-12-31T16:18:50.213Z,2.10
2022-12-31T16:21:34.137Z,2.83
2022-12-31T16:24:06.105Z,1.98
2022-12-31T16:26:37.659Z,2.20
2022-12-31T16:29:06.869Z,2.00
2022-12-31T16:31:37.372Z,2.45
2022-12-31T16:34:26.212Z,2.17
2022-12-31T16:37:07.251Z,1.90
2022-12-31T16:39:36.213Z,3.30
2022-12-31T16:42:18.012Z,2.50
2022-12-31T16:44:47.118Z,2.75
2022-12-31T16:47:23.335Z,2.28
2022-12-31T16:50:13.851Z,1.73
2022-12-31T16:52:59.718Z,2.85
2022-12-31T16:55:35.616Z,1.60
2022-12-31T16:58:12.847Z,2.38
2022-12-31T17:00:44.117Z,2.38
2022-12-31T17:03:15.509Z,1.70
2022-12-31T17:05:57.291Z,2.97
2022-12-31T17:08:42.855Z,2.22
2022-12-31T17:11:23.601Z,3.47
2022-12-31T17:14:10.309Z,2.65
2022-12-31T17:17:02.266Z,2.33
2022-12-31T17:19:48.147Z,2.15
2022-12-31T17:22:30.716Z,2.38
2022-12-31T17:25:05.877Z,3.10
2022-12-31T17:27:33.398Z,2.22
2022-12-31T17:30:26.520Z,2.22
2022-12-31T17:33:06.046Z,1.92
2022-12-31T17:35:37.575Z,2.33
2022-12-31T17:38:23.510Z,1.90
2022-12-31T17:40:52.515Z,2.00
2022-12-31T17:43:21.059Z,2.42
2022-12-31T17:45:48.775Z,3.13
2022-12-31T17:48:17.450Z,6.68
2022-12-31T17:50:51.999Z,7.60
2022-12-31T17:53:19.220Z,4.60
2022-12-31T17:55:47.645Z,4.75
2022-12-31T17:58:23.518Z,2.65
2022-12-31T18:00:55.842Z,19.80
2022-12-31T18:03:24.256Z,18.55
2022-12-31T18:05:53.521Z,7.68
2022-12-31T18:08:21.777Z,2.35
2022-12-31T18:10:50.728Z,14.65
2022-12-31T18:13:19.563Z,6.60
2022-12-31T18:15:47.274Z,5.57
2022-12-31T18:18:24.795Z,8.75
2022-12-31T18:20:58.279Z,6.43
2022-12-31T18:23:29.885Z,24.67
2022-12-31T18:25:59.059Z,8.23
2022-12-31T18:28:26.221Z,9.80
2022-12-31T18:30:53.786Z,20.60
2022-12-31T18:33:23.806Z,12.70
2022-12-31T18:36:10.226Z,12.43
2022-12-31T18:38:37.750Z,6.15
2022-12-31T18:41:05.134Z,4.72
2022-12-31T18:43:33.366Z,3.13
2022-12-31T18:46:00.730Z,5.90
2022-12-31T18:48:30.243Z,7.80
2022-12-31T18:50:57.596Z,22.77
2022-12-31T18:53:24.940Z,7.47
2022-12-31T18:55:56.579Z,6.75
2022-12-31T18:58:25.069Z,6.63
2022-12-31T19:00:52.383Z,4.32
2022-12-31T19:03:21.725Z,21.20
2022-12-31T19:05:50.992Z,7.30
2022-12-31T19:08:18.973Z,3.10
2022-12-31T19:10:51.163Z,2.95
2022-12-31T19:13:19.746Z,1.92
2022-12-31T19:16:03.413Z,2.55
2022-12-31T19:18:44.196Z,2.25
2022-12-31T19:21:16.588Z,2.03
2022-12-31T19:23:52.324Z,2.35
2022-12-31T19:26:25.799Z,2.40
2022-12-31T19:28:53.073Z,1.95
2022-12-31T19:31:21.368Z,2.50
2022-12-31T19:33:48.656Z,2.58
2022-12-31T19:36:21.198Z,1.92
2022-12-31T19:38:54.849Z,1.98
2022-12-31T19:41:23.148Z,2.10
2022-12-31T19:44:05.835Z,2.03
2022-12-31T19:46:35.328Z,2.10
2022-12-31T19:49:02.827Z,2.60
2022-12-31T19:51:30.565Z,3.38
2022-12-31T19:53:58.180Z,2.50
2022-12-31T19:56:27.596Z,2.10
2022-12-31T19:58:59.529Z,2.13
2022-12-31T20:01:35.165Z,2.65
2022-12-31T20:04:03.661Z,2.88
2022-12-31T20:06:31.949Z,2.53
2022-12-31T20:08:59.107Z,2.78
2022-12-31T20:11:34.107Z,2.30
2022-12-31T20:14:01.665Z,5.03
2022-12-31T20:16:33.801Z,2.20
2022-12-31T20:19:03.539Z,3.20
2022-12-31T20:21:30.779Z,2.30
2022-12-31T20:23:58.060Z,4.50
2022-12-31T20:26:25.872Z,4.25
2022-12-31T20:28:53.508Z,2.08
2022-12-31T20:31:23.979Z,3.38
2022-12-31T20:33:54.179Z,3.28
2022-12-31T20:36:21.626Z,2.47
2022-12-31T20:38:50.287Z,2.30
2022-12-31T20:41:20.577Z,2.58
2022-12-31T20:43:48.910Z,1.65
2022-12-31T20:46:21.625Z,2.42
2022-12-31T20:48:49.911Z,2.88
2022-12-31T20:51:24.640Z,2.47
2022-12-31T20:53:57.407Z,2.50
2022-12-31T20:56:26.903Z,2.35
2022-12-31T20:58:54.281Z,1.77
2022-12-31T21:01:22.898Z,1.73
2022-12-31T21:04:08.608Z,2.80
2022-12-31T21:06:36.600Z,2.78
2022-12-31T21:09:12.707Z,2.45
2022-12-31T21:12:04.238Z,3.95
2022-12-31T21:14:33.629Z,2.63
2022-12-31T21:17:05.175Z,2.75
2022-12-31T21:19:34.460Z,2.10
2022-12-31T21:22:01.812Z,2.65
2022-12-31T21:24:29.266Z,3.20
2022-12-31T21:26:57.029Z,2.60
2022-12-31T21:29:24.641Z,2.38
2022-12-31T21:31:58.509Z,3.35
2022-12-31T21:34:26.162Z,2.63
2022-12-31T21:36:54.665Z,3.28
2022-12-31T21:39:27.876Z,1.80
2022-12-31T21:41:57.812Z,1.73
2022-12-31T21:44:32.189Z,2.38
2022-12-31T21:47:40.922Z,2.53
2022-12-31T21:50:20.241Z,2.42
2022-12-31T21:52:48.417Z,2.45
2022-12-31T21:55:42.363Z,3.03
2022-12-31T21:58:27.740Z,2.65
2022-12-31T22:01:19.348Z,1.85
2022-12-31T22:03:46.681Z,2.38
2022-12-31T22:06:21.793Z,2.72
2022-12-31T22:08:55.430Z,2.22
2022-12-31T22:11:35.751Z,2.53
2022-12-31T22:14:03.112Z,2.97
2022-12-31T22:16:33.603Z,1.88
2022-12-31T22:19:03.153Z,2.22
2022-12-31T22:21:30.426Z,2.67
2022-12-31T22:24:03.188Z,2.53
2022-12-31T22:26:30.662Z,2.30
2022-12-31T22:28:59.873Z,1.80
2022-12-31T22:31:30.223Z,2.33
2022-12-31T22:34:00.178Z,2.28
2022-12-31T22:36:29.827Z,2.17
2022-12-31T22:38:58.942Z,3.30
2022-12-31T22:41:35.461Z,2.70
2022-12-31T22:44:05.110Z,2.50
2022-12-31T22:46:33.863Z,2.95
2022-12-31T22:49:01.760Z,2.25
2022-12-31T22:51:57.254Z,2.60
2022-12-31T22:54:24.581Z,2.63
2022-12-31T22:56:58.139Z,2.50
2022-12-31T22:59:26.907Z,2.97
2022-12-31T23:01:56.301Z,2.90
2022-12-31T23:04:34.564Z,2.97
2022-12-31T23:07:04.267Z,4.53
2022-12-31T23:09:50.817Z,2.83
2022-12-31T23:12:18.800Z,3.45
2022-12-31T23:15:05.369Z,7.72
2022-12-31T23:17:51.668Z,4.65
2022-12-31T23:20:40.985Z,6.97
2022-12-31T23:23:10.259Z,11.23
2022-12-31T23:25:42.045Z,5.82
2022-12-31T23:28:20.602Z,7.28
2022-12-31T23:30:49.086Z,5.82
2022-12-31T23:33:18.668Z,7.75
2022-12-31T23:35:46.516Z,7.10
2022-12-31T23:38:16.724Z,6.47
2022-12-31T23:40:44.345Z,6.63
2022-12-31T23:43:19.782Z,6.40
2022-12-31T23:45:53.450Z,5.68
2022-12-31T23:48:20.645Z,6.00
2022-12-31T23:51:03.411Z,7.32
2022-12-31T23:53:33.099Z,8.13
2022-12-31T23:56:17.666Z,5.75
2022-12-31T23:58:55.188Z,7.82
